Private Wetterstation Sandau
Wetterdaten: Dienstag, 10.01.2012
Datum Zeit Temp. A. Feuchte A. Luftdruck Regen Wind Richtung Richtung Taupunkt Windchill
10.01.2012 00:02 7,2 C 92 % 1021,2 hPa 0,0 l/m 8,6 km/h (2 Bft) W-NW 292 6,0 C 5,6 C
10.01.2012 00:07 7,2 C 92 % 1021,2 hPa 0,0 l/m 9,4 km/h (2 Bft) W 270 6,0 C 5,4 C
10.01.2012 00:12 7,2 C 91 % 1021,5 hPa 0,0 l/m 11,9 km/h (2 Bft) W-NW 292 5,8 C 4,9 C
10.01.2012 00:17 7,2 C 91 % 1021,4 hPa 0,0 l/m 24,5 km/h (4 Bft) NW 315 5,8 C 3,4 C
10.01.2012 00:22 7,1 C 91 % 1021,5 hPa 0,0 l/m 11,2 km/h (2 Bft) W-NW 292 5,7 C 4,9 C
10.01.2012 00:27 7,0 C 90 % 1021,5 hPa 0,0 l/m 24,1 km/h (4 Bft) W-NW 292 5,5 C 3,2 C
10.01.2012 00:32 6,9 C 90 % 1021,6 hPa 0,0 l/m 29,5 km/h (5 Bft) W-NW 292 5,4 C 2,6 C
10.01.2012 00:37 6,9 C 90 % 1021,5 hPa 0,0 l/m 16,9 km/h (3 Bft) W-NW 292 5,4 C 3,8 C
10.01.2012 00:42 6,9 C 90 % 1021,5 hPa 0,0 l/m 18,0 km/h (3 Bft) W 270 5,4 C 3,7 C
10.01.2012 00:47 6,9 C 90 % 1021,6 hPa 0,0 l/m 18,4 km/h (3 Bft) W 270 5,4 C 3,6 C
10.01.2012 00:52 6,9 C 89 % 1021,7 hPa 0,0 l/m 19,8 km/h (3 Bft) NW 315 5,2 C 3,5 C
10.01.2012 00:57 6,8 C 89 % 1021,8 hPa 0,0 l/m 18,0 km/h (3 Bft) N-NW 337 5,1 C 3,6 C
10.01.2012 01:02 6,8 C 89 % 1021,8 hPa 0,0 l/m 23,0 km/h (4 Bft) W 270 5,1 C 3,0 C
10.01.2012 01:07 6,8 C 88 % 1022,0 hPa 0,0 l/m 18,4 km/h (3 Bft) W-NW 292 5,0 C 3,5 C
10.01.2012 01:12 6,7 C 88 % 1022,0 hPa 0,0 l/m 25,2 km/h (4 Bft) W-NW 292 4,9 C 2,7 C
10.01.2012 01:17 6,7 C 88 % 1022,0 hPa 0,0 l/m 11,9 km/h (2 Bft) W-NW 292 4,9 C 4,3 C
10.01.2012 01:22 6,7 C 87 % 1022,3 hPa 0,0 l/m 15,8 km/h (3 Bft) W 270 4,7 C 3,7 C
10.01.2012 01:27 6,6 C 87 % 1022,2 hPa 0,0 l/m 10,8 km/h (2 Bft) N-NW 337 4,6 C 4,4 C
10.01.2012 01:32 6,6 C 87 % 1022,3 hPa 0,0 l/m 23,8 km/h (4 Bft) W-NW 292 4,6 C 2,7 C
10.01.2012 01:37 6,5 C 87 % 1022,5 hPa 0,0 l/m 13,7 km/h (3 Bft) W-NW 292 4,5 C 3,8 C
10.01.2012 01:42 6,4 C 87 % 1022,5 hPa 0,0 l/m 15,8 km/h (3 Bft) W-NW 292 4,4 C 3,4 C
10.01.2012 01:47 6,3 C 87 % 1022,6 hPa 0,0 l/m 16,2 km/h (3 Bft) NW 315 4,3 C 3,2 C
10.01.2012 01:52 6,2 C 87 % 1022,6 hPa 0,0 l/m 18,0 km/h (3 Bft) W-NW 292 4,2 C 2,8 C
10.01.2012 01:57 6,1 C 87 % 1022,7 hPa 0,0 l/m 15,1 km/h (3 Bft) W-NW 292 4,1 C 3,1 C
10.01.2012 02:02 6,1 C 87 % 1022,6 hPa 0,0 l/m 13,0 km/h (3 Bft) W 270 4,1 C 3,4 C
10.01.2012 02:07 5,9 C 87 % 1022,9 hPa 0,0 l/m 17,3 km/h (3 Bft) W-NW 292 3,9 C 2,5 C
10.01.2012 02:12 5,9 C 87 % 1022,9 hPa 0,0 l/m 15,1 km/h (3 Bft) W 270 3,9 C 2,8 C
10.01.2012 02:17 5,8 C 87 % 1023,0 hPa 0,0 l/m 14,0 km/h (3 Bft) W-NW 292 3,8 C 2,9 C
10.01.2012 02:22 5,8 C 87 % 1023,1 hPa 0,0 l/m 14,0 km/h (3 Bft) W-NW 292 3,8 C 2,9 C
10.01.2012 02:27 5,7 C 87 % 1023,3 hPa 0,0 l/m 8,3 km/h (2 Bft) W-NW 292 3,7 C 3,9 C
10.01.2012 02:32 5,6 C 88 % 1023,5 hPa 0,0 l/m 14,4 km/h (3 Bft) W 270 3,8 C 2,6 C
10.01.2012 02:37 5,6 C 88 % 1023,5 hPa 0,0 l/m 19,4 km/h (3 Bft) W-NW 292 3,8 C 1,9 C
10.01.2012 02:42 5,6 C 88 % 1023,4 hPa 0,0 l/m 13,3 km/h (3 Bft) W-NW 292 3,8 C 2,8 C
10.01.2012 02:47 5,5 C 88 % 1023,6 hPa 0,0 l/m 14,4 km/h (3 Bft) NW 315 3,7 C 2,5 C
10.01.2012 02:52 5,5 C 88 % 1023,7 hPa 0,0 l/m 16,6 km/h (3 Bft) NW 315 3,7 C 2,1 C
10.01.2012 02:57 5,4 C 88 % 1023,8 hPa 0,0 l/m 7,2 km/h (2 Bft) W 270 3,6 C 3,8 C
10.01.2012 03:02 5,4 C 88 % 1023,7 hPa 0,0 l/m 12,6 km/h (3 Bft) NW 315 3,6 C 2,6 C
10.01.2012 03:07 5,3 C 88 % 1023,9 hPa 0,0 l/m 14,4 km/h (3 Bft) NW 315 3,5 C 2,2 C
10.01.2012 03:12 5,3 C 87 % 1024,0 hPa 0,0 l/m 11,2 km/h (2 Bft) N-NW 337 3,3 C 2,8 C
10.01.2012 03:17 5,3 C 87 % 1024,1 hPa 0,0 l/m 7,6 km/h (2 Bft) W 270 3,3 C 3,6 C
10.01.2012 03:22 5,3 C 87 % 1024,1 hPa 0,0 l/m 12,6 km/h (3 Bft) W-NW 292 3,3 C 2,5 C
10.01.2012 03:27 5,2 C 87 % 1024,1 hPa 0,0 l/m 14,0 km/h (3 Bft) NW 315 3,2 C 2,2 C
10.01.2012 03:32 5,2 C 87 % 1024,2 hPa 0,0 l/m 10,8 km/h (2 Bft) W 270 3,2 C 2,7 C
10.01.2012 03:37 5,2 C 87 % 1024,3 hPa 0,0 l/m 21,6 km/h (4 Bft) NW 315 3,2 C 1,1 C
10.01.2012 03:42 5,3 C 87 % 1024,3 hPa 0,0 l/m 10,8 km/h (2 Bft) W-NW 292 3,3 C 2,9 C
10.01.2012 03:47 5,3 C 87 % 1024,3 hPa 0,0 l/m 12,6 km/h (3 Bft) W-SW 247 3,3 C 2,5 C
10.01.2012 03:52 5,3 C 87 % 1024,3 hPa 0,0 l/m 12,2 km/h (2 Bft) W-NW 292 3,3 C 2,6 C
10.01.2012 03:57 5,3 C 87 % 1024,3 hPa 0,0 l/m 10,4 km/h (2 Bft) O-NO 67 3,3 C 2,9 C
10.01.2012 04:02 5,3 C 86 % 1024,4 hPa 0,0 l/m 16,6 km/h (3 Bft) W 270 3,2 C 1,9 C
10.01.2012 04:07 5,4 C 86 % 1024,3 hPa 0,0 l/m 14,8 km/h (3 Bft) W 270 3,3 C 2,3 C
10.01.2012 04:12 5,4 C 86 % 1024,6 hPa 0,0 l/m 8,3 km/h (2 Bft) NW 315 3,3 C 3,5 C
10.01.2012 04:17 5,4 C 86 % 1024,5 hPa 0,0 l/m 25,2 km/h (4 Bft) W-NW 292 3,3 C 1,0 C
10.01.2012 04:22 5,4 C 86 % 1024,4 hPa 0,0 l/m 18,7 km/h (3 Bft) W-NW 292 3,3 C 1,7 C
10.01.2012 04:27 5,4 C 86 % 1024,5 hPa 0,0 l/m 20,9 km/h (4 Bft) W-SW 247 3,3 C 1,5 C
10.01.2012 04:32 5,4 C 86 % 1024,7 hPa 0,0 l/m 5,4 km/h (1 Bft) SW 225 3,3 C 4,4 C
10.01.2012 04:37 5,4 C 86 % 1024,7 hPa 0,0 l/m 10,4 km/h (2 Bft) W 270 3,3 C 3,1 C
10.01.2012 04:42 5,3 C 86 % 1024,8 hPa 0,0 l/m 23,8 km/h (4 Bft) NW 315 3,2 C 1,0 C
10.01.2012 04:47 5,3 C 86 % 1024,8 hPa 0,0 l/m 27,7 km/h (4 Bft) W-NW 292 3,2 C 0,6 C
10.01.2012 04:52 5,3 C 86 % 1024,8 hPa 0,0 l/m 11,5 km/h (2 Bft) N 360 3,2 C 2,7 C
10.01.2012 04:57 5,3 C 86 % 1024,9 hPa 0,0 l/m 4,7 km/h (1 Bft) W-NW 292 3,2 C 4,5 C
10.01.2012 05:02 5,2 C 86 % 1024,9 hPa 0,0 l/m 23,0 km/h (4 Bft) W 270 3,1 C 1,0 C
10.01.2012 05:07 5,1 C 86 % 1024,9 hPa 0,0 l/m 14,4 km/h (3 Bft) W-NW 292 3,0 C 2,0 C
10.01.2012 05:12 5,1 C 86 % 1025,2 hPa 0,0 l/m 8,6 km/h (2 Bft) W-NW 292 3,0 C 3,1 C
10.01.2012 05:17 5,1 C 86 % 1025,1 hPa 0,0 l/m 11,9 km/h (2 Bft) NW 315 3,0 C 2,4 C
10.01.2012 05:22 4,9 C 86 % 1025,2 hPa 0,0 l/m 19,1 km/h (3 Bft) W-NW 292 2,8 C 1,1 C
10.01.2012 05:27 4,9 C 86 % 1025,2 hPa 0,0 l/m 9,0 km/h (2 Bft) W-NW 292 2,8 C 2,8 C
10.01.2012 05:32 4,9 C 86 % 1025,2 hPa 0,0 l/m 9,0 km/h (2 Bft) W-NW 292 2,8 C 2,8 C
10.01.2012 05:37 4,8 C 87 % 1025,4 hPa 0,0 l/m 12,2 km/h (2 Bft) W-NW 292 2,8 C 2,0 C
10.01.2012 05:42 4,8 C 87 % 1025,6 hPa 0,0 l/m 9,7 km/h (2 Bft) W 270 2,8 C 2,5 C
10.01.2012 05:47 4,7 C 87 % 1025,5 hPa 0,0 l/m 6,1 km/h (2 Bft) W-NW 292 2,7 C 3,3 C
10.01.2012 05:52 4,6 C 87 % 1025,4 hPa 0,0 l/m 6,1 km/h (2 Bft) W-SW 247 2,6 C 3,2 C
10.01.2012 05:57 4,6 C 87 % 1025,6 hPa 0,0 l/m 10,1 km/h (2 Bft) NW 315 2,6 C 2,2 C
10.01.2012 06:02 4,5 C 87 % 1025,8 hPa 0,0 l/m 6,1 km/h (2 Bft) W-NW 292 2,5 C 3,1 C
10.01.2012 06:07 4,5 C 87 % 1025,8 hPa 0,0 l/m 14,4 km/h (3 Bft) W-NW 292 2,5 C 1,2 C
10.01.2012 06:12 4,4 C 87 % 1025,8 hPa 0,0 l/m 6,5 km/h (2 Bft) W 270 2,4 C 2,9 C
10.01.2012 06:17 4,4 C 87 % 1026,0 hPa 0,0 l/m 16,9 km/h (3 Bft) W 270 2,4 C 0,7 C
10.01.2012 06:22 4,4 C 87 % 1026,0 hPa 0,0 l/m 16,6 km/h (3 Bft) W-NW 292 2,4 C 0,8 C
10.01.2012 06:27 4,4 C 88 % 1026,2 hPa 0,0 l/m 13,0 km/h (3 Bft) W-NW 292 2,6 C 1,3 C
10.01.2012 06:32 4,4 C 88 % 1026,0 hPa 0,0 l/m 11,9 km/h (2 Bft) W-NW 292 2,6 C 1,5 C
10.01.2012 06:37 4,4 C 88 % 1026,1 hPa 0,0 l/m 16,2 km/h (3 Bft) W 270 2,6 C 0,8 C
10.01.2012 06:42 4,3 C 88 % 1026,2 hPa 0,0 l/m 12,6 km/h (3 Bft) W 270 2,5 C 1,3 C
10.01.2012 06:47 4,3 C 88 % 1026,2 hPa 0,0 l/m 13,7 km/h (3 Bft) W-NW 292 2,5 C 1,1 C
10.01.2012 06:52 4,2 C 88 % 1026,2 hPa 0,0 l/m 11,2 km/h (2 Bft) W 270 2,4 C 1,4 C
10.01.2012 06:57 4,2 C 88 % 1026,4 hPa 0,0 l/m 11,9 km/h (2 Bft) NW 315 2,4 C 1,3 C
10.01.2012 07:02 4,1 C 88 % 1026,3 hPa 0,0 l/m 13,0 km/h (3 Bft) W-NW 292 2,3 C 1,0 C
10.01.2012 07:07 4,1 C 87 % 1026,5 hPa 0,0 l/m 7,2 km/h (2 Bft) W-NW 292 2,1 C 2,3 C
10.01.2012 07:12 4,1 C 87 % 1026,8 hPa 0,0 l/m 9,7 km/h (2 Bft) W 270 2,1 C 1,7 C
10.01.2012 07:17 4,1 C 87 % 1026,7 hPa 0,0 l/m 13,0 km/h (3 Bft) NW 315 2,1 C 1,0 C
10.01.2012 07:22 4,1 C 87 % 1026,9 hPa 0,0 l/m 12,6 km/h (3 Bft) W 270 2,1 C 1,1 C
10.01.2012 07:27 4,1 C 88 % 1027,0 hPa 0,0 l/m 15,5 km/h (3 Bft) W 270 2,3 C 0,6 C
10.01.2012 07:32 4,2 C 88 % 1026,9 hPa 0,0 l/m 12,2 km/h (2 Bft) W-NW 292 2,4 C 1,2 C
10.01.2012 07:37 4,3 C 88 % 1027,0 hPa 0,0 l/m 17,3 km/h (3 Bft) W 270 2,5 C 0,5 C
10.01.2012 07:42 4,3 C 88 % 1027,3 hPa 0,0 l/m 16,9 km/h (3 Bft) W-NW 292 2,5 C 0,6 C
10.01.2012 07:47 4,4 C 88 % 1027,2 hPa 0,0 l/m 16,2 km/h (3 Bft) NW 315 2,6 C 0,8 C
10.01.2012 07:52 4,5 C 88 % 1027,4 hPa 0,0 l/m 19,1 km/h (3 Bft) W-NW 292 2,7 C 0,5 C
10.01.2012 07:57 4,6 C 88 % 1027,5 hPa 0,0 l/m 12,2 km/h (2 Bft) W-NW 292 2,8 C 1,7 C
10.01.2012 08:02 4,7 C 88 % 1027,5 hPa 0,0 l/m 10,8 km/h (2 Bft) NW 315 2,9 C 2,1 C
10.01.2012 08:07 4,8 C 88 % 1027,6 hPa 0,0 l/m 18,0 km/h (3 Bft) W-NW 292 3,0 C 1,1 C
10.01.2012 08:12 4,8 C 88 % 1027,7 hPa 0,0 l/m 20,9 km/h (4 Bft) W-NW 292 3,0 C 0,7 C
10.01.2012 08:17 4,8 C 88 % 1027,9 hPa 0,0 l/m 29,2 km/h (5 Bft) NW 315 3,0 C -0,1 C
10.01.2012 08:22 4,9 C 88 % 1027,8 hPa 0,0 l/m 14,4 km/h (3 Bft) NW 315 3,1 C 1,7 C
10.01.2012 08:27 4,8 C 88 % 1028,1 hPa 0,0 l/m 15,8 km/h (3 Bft) N-NW 337 3,0 C 1,4 C
10.01.2012 08:32 4,9 C 88 % 1028,2 hPa 0,0 l/m 10,1 km/h (2 Bft) W 270 3,1 C 2,5 C
10.01.2012 08:37 4,9 C 88 % 1028,5 hPa 0,0 l/m 15,5 km/h (3 Bft) NW 315 3,1 C 1,5 C
10.01.2012 08:42 4,9 C 88 % 1028,3 hPa 0,0 l/m 24,1 km/h (4 Bft) NW 315 3,1 C 0,5 C
10.01.2012 08:47 4,9 C 88 % 1028,5 hPa 0,0 l/m 11,9 km/h (2 Bft) NW 315 3,1 C 2,2 C
10.01.2012 08:52 4,9 C 87 % 1028,7 hPa 0,0 l/m 4,7 km/h (1 Bft) W-NW 292 2,9 C 4,1 C
10.01.2012 08:57 4,9 C 87 % 1028,7 hPa 0,0 l/m 9,7 km/h (2 Bft) NW 315 2,9 C 2,6 C
10.01.2012 09:02 4,9 C 87 % 1028,9 hPa 0,0 l/m 10,1 km/h (2 Bft) N-NW 337 2,9 C 2,5 C
10.01.2012 09:07 4,9 C 87 % 1028,9 hPa 0,0 l/m 7,9 km/h (2 Bft) W 270 2,9 C 3,0 C
10.01.2012 09:12 4,9 C 87 % 1029,0 hPa 0,0 l/m 10,1 km/h (2 Bft) W-NW 292 2,9 C 2,5 C
10.01.2012 09:17 5,0 C 87 % 1028,9 hPa 0,0 l/m 9,4 km/h (2 Bft) W-NW 292 3,0 C 2,8 C
10.01.2012 09:22 5,1 C 87 % 1028,8 hPa 0,0 l/m 9,7 km/h (2 Bft) W-NW 292 3,1 C 2,8 C
10.01.2012 09:27 5,1 C 87 % 1028,9 hPa 0,0 l/m 9,7 km/h (2 Bft) W-NW 292 3,1 C 2,8 C
10.01.2012 09:32 5,1 C 87 % 1029,1 hPa 0,0 l/m 11,9 km/h (2 Bft) NW 315 3,1 C 2,4 C
10.01.2012 09:37 5,2 C 87 % 1029,0 hPa 0,0 l/m 10,1 km/h (2 Bft) W-NW 292 3,2 C 2,9 C
10.01.2012 09:42 5,1 C 87 % 1029,0 hPa 0,0 l/m 13,7 km/h (3 Bft) NW 315 3,1 C 2,1 C
10.01.2012 09:47 5,1 C 87 % 1029,2 hPa 0,0 l/m 10,8 km/h (2 Bft) W-NW 292 3,1 C 2,6 C
10.01.2012 09:52 5,1 C 87 % 1029,3 hPa 0,0 l/m 8,3 km/h (2 Bft) W 270 3,1 C 3,2 C
10.01.2012 09:57 5,1 C 87 % 1029,4 hPa 0,0 l/m 16,6 km/h (3 Bft) W 270 3,1 C 1,6 C
10.01.2012 10:02 5,1 C 87 % 1029,4 hPa 0,0 l/m 11,9 km/h (2 Bft) W 270 3,1 C 2,4 C
10.01.2012 10:07 5,2 C 88 % 1029,6 hPa 0,0 l/m 9,4 km/h (2 Bft) W-NW 292 3,4 C 3,0 C
10.01.2012 10:12 5,2 C 88 % 1029,7 hPa 0,0 l/m 6,8 km/h (2 Bft) W-NW 292 3,4 C 3,7 C
10.01.2012 10:17 5,2 C 88 % 1029,7 hPa 0,0 l/m 10,1 km/h (2 Bft) W-NW 292 3,4 C 2,9 C
10.01.2012 10:22 5,3 C 87 % 1029,8 hPa 0,0 l/m 6,1 km/h (2 Bft) NW 315 3,3 C 4,0 C
10.01.2012 10:27 5,3 C 88 % 1029,8 hPa 0,0 l/m 5,4 km/h (1 Bft) W 270 3,5 C 4,3 C
10.01.2012 10:32 5,3 C 87 % 1029,8 hPa 0,0 l/m 7,6 km/h (2 Bft) W 270 3,3 C 3,6 C
10.01.2012 10:37 5,4 C 87 % 1029,7 hPa 0,0 l/m 12,6 km/h (3 Bft) W 270 3,4 C 2,6 C
10.01.2012 10:42 5,5 C 88 % 1029,8 hPa 0,0 l/m 7,9 km/h (2 Bft) W 270 3,7 C 3,7 C
10.01.2012 10:47 5,8 C 88 % 1029,9 hPa 0,0 l/m 12,2 km/h (2 Bft) W-NW 292 4,0 C 3,2 C
10.01.2012 10:52 6,0 C 87 % 1029,8 hPa 0,0 l/m 11,2 km/h (2 Bft) W-NW 292 4,0 C 3,6 C
10.01.2012 10:57 6,2 C 87 % 1029,8 hPa 0,0 l/m 8,3 km/h (2 Bft) W-NW 292 4,2 C 4,5 C
10.01.2012 11:02 6,3 C 86 % 1030,0 hPa 0,0 l/m 7,2 km/h (2 Bft) W-NW 292 4,1 C 4,9 C
10.01.2012 11:07 6,3 C 86 % 1030,1 hPa 0,0 l/m 13,3 km/h (3 Bft) W-NW 292 4,1 C 3,6 C
10.01.2012 11:12 6,2 C 86 % 1030,0 hPa 0,0 l/m 14,4 km/h (3 Bft) W-NW 292 4,0 C 3,3 C
10.01.2012 11:17 6,1 C 86 % 1029,9 hPa 0,0 l/m 9,0 km/h (2 Bft) N-NW 337 3,9 C 4,2 C
10.01.2012 11:22 6,1 C 86 % 1029,9 hPa 0,0 l/m 10,8 km/h (2 Bft) W-NW 292 3,9 C 3,8 C
10.01.2012 11:27 6,1 C 86 % 1030,0 hPa 0,0 l/m 8,6 km/h (2 Bft) W-NW 292 3,9 C 4,3 C
10.01.2012 11:32 6,1 C 86 % 1029,9 hPa 0,0 l/m 7,2 km/h (2 Bft) W-NW 292 3,9 C 4,6 C
10.01.2012 11:37 6,1 C 86 % 1029,9 hPa 0,0 l/m 14,4 km/h (3 Bft) N-NW 337 3,9 C 3,2 C
10.01.2012 11:42 6,2 C 86 % 1029,9 hPa 0,0 l/m 14,4 km/h (3 Bft) N-NW 337 4,0 C 3,3 C
10.01.2012 11:47 6,2 C 86 % 1029,8 hPa 0,0 l/m 15,8 km/h (3 Bft) NW 315 4,0 C 3,1 C
10.01.2012 11:52 6,3 C 85 % 1030,1 hPa 0,0 l/m 6,1 km/h (2 Bft) NW 315 4,0 C 5,2 C
10.01.2012 11:57 6,3 C 85 % 1030,0 hPa 0,0 l/m 14,8 km/h (3 Bft) W-NW 292 4,0 C 3,4 C
10.01.2012 12:02 6,4 C 85 % 1029,9 hPa 0,0 l/m 15,5 km/h (3 Bft) NW 315 4,1 C 3,4 C
10.01.2012 12:07 6,4 C 85 % 1030,2 hPa 0,0 l/m 12,6 km/h (3 Bft) W 270 4,1 C 3,8 C
10.01.2012 12:12 6,4 C 84 % 1030,2 hPa 0,0 l/m 3,6 km/h (1 Bft) W-SW 247 3,9 C 6,4 C
10.01.2012 12:17 6,4 C 84 % 1030,1 hPa 0,0 l/m 13,3 km/h (3 Bft) W 270 3,9 C 3,7 C
10.01.2012 12:22 6,5 C 85 % 1030,1 hPa 0,0 l/m 14,4 km/h (3 Bft) W 270 4,2 C 3,7 C
10.01.2012 12:27 6,5 C 85 % 1030,1 hPa 0,0 l/m 11,5 km/h (2 Bft) W-SW 247 4,2 C 4,2 C
10.01.2012 12:32 6,5 C 85 % 1030,1 hPa 0,0 l/m 11,2 km/h (2 Bft) W-NW 292 4,2 C 4,2 C
10.01.2012 12:37 6,6 C 85 % 1030,2 hPa 0,0 l/m 5,4 km/h (1 Bft) W-NW 292 4,3 C 5,8 C
10.01.2012 12:42 6,6 C 85 % 1030,2 hPa 0,0 l/m 15,8 km/h (3 Bft) W-NW 292 4,3 C 3,6 C
10.01.2012 12:47 6,6 C 85 % 1030,1 hPa 0,0 l/m 6,5 km/h (2 Bft) NW 315 4,3 C 5,4 C
10.01.2012 12:52 6,7 C 85 % 1030,1 hPa 0,0 l/m 11,2 km/h (2 Bft) W 270 4,4 C 4,5 C
10.01.2012 12:57 6,7 C 85 % 1030,0 hPa 0,0 l/m 10,8 km/h (2 Bft) W 270 4,4 C 4,5 C
10.01.2012 13:02 6,7 C 85 % 1030,2 hPa 0,0 l/m 11,2 km/h (2 Bft) W 270 4,4 C 4,5 C
10.01.2012 13:07 6,7 C 85 % 1030,0 hPa 0,0 l/m 6,5 km/h (2 Bft) W-NW 292 4,4 C 5,5 C
10.01.2012 13:12 6,7 C 85 % 1030,0 hPa 0,0 l/m 6,1 km/h (2 Bft) NW 315 4,4 C 5,6 C
10.01.2012 13:17 6,7 C 85 % 1030,0 hPa 0,0 l/m 11,5 km/h (2 Bft) W-NW 292 4,4 C 4,4 C
10.01.2012 13:22 6,7 C 85 % 1030,2 hPa 0,0 l/m 4,7 km/h (1 Bft) W 270 4,4 C 6,1 C
10.01.2012 13:27 6,7 C 85 % 1030,3 hPa 0,0 l/m 10,4 km/h (2 Bft) W-SW 247 4,4 C 4,6 C
10.01.2012 13:32 6,7 C 85 % 1030,2 hPa 0,0 l/m 8,6 km/h (2 Bft) W-NW 292 4,4 C 5,0 C
10.01.2012 13:37 6,6 C 85 % 1030,2 hPa 0,0 l/m 19,1 km/h (3 Bft) W-NW 292 4,3 C 3,2 C
10.01.2012 13:42 6,7 C 85 % 1030,1 hPa 0,0 l/m 7,6 km/h (2 Bft) NW 315 4,4 C 5,2 C
10.01.2012 13:47 6,7 C 85 % 1030,1 hPa 0,0 l/m 15,8 km/h (3 Bft) W-NW 292 4,4 C 3,7 C
10.01.2012 13:52 6,6 C 85 % 1030,2 hPa 0,0 l/m 13,0 km/h (3 Bft) W-NW 292 4,3 C 4,0 C
10.01.2012 13:57 6,7 C 85 % 1030,1 hPa 0,0 l/m 10,4 km/h (2 Bft) W-NW 292 4,4 C 4,6 C
10.01.2012 14:02 6,7 C 85 % 1030,2 hPa 0,0 l/m 11,5 km/h (2 Bft) W-NW 292 4,4 C 4,4 C
10.01.2012 14:07 6,7 C 85 % 1030,2 hPa 0,0 l/m 9,7 km/h (2 Bft) W-NW 292 4,4 C 4,8 C
10.01.2012 14:12 6,7 C 85 % 1030,1 hPa 0,0 l/m 13,0 km/h (3 Bft) W-NW 292 4,4 C 4,1 C
10.01.2012 14:17 6,7 C 85 % 1030,2 hPa 0,0 l/m 11,5 km/h (2 Bft) NW 315 4,4 C 4,4 C
10.01.2012 14:22 6,7 C 85 % 1030,1 hPa 0,0 l/m 9,0 km/h (2 Bft) W 270 4,4 C 4,9 C
10.01.2012 14:27 6,8 C 85 % 1030,2 hPa 0,0 l/m 9,7 km/h (2 Bft) W 270 4,5 C 4,9 C
10.01.2012 14:32 6,8 C 84 % 1030,3 hPa 0,0 l/m 15,5 km/h (3 Bft) W 270 4,3 C 3,9 C
10.01.2012 14:37 6,8 C 84 % 1030,2 hPa 0,0 l/m 11,2 km/h (2 Bft) W-NW 292 4,3 C 4,6 C
10.01.2012 14:42 6,8 C 84 % 1030,2 hPa 0,0 l/m 17,6 km/h (3 Bft) W 270 4,3 C 3,6 C
10.01.2012 14:47 6,9 C 84 % 1030,2 hPa 0,0 l/m 15,5 km/h (3 Bft) W 270 4,4 C 4,0 C
10.01.2012 14:52 6,9 C 83 % 1030,1 hPa 0,0 l/m 4,7 km/h (1 Bft) S-SW 202 4,2 C 6,3 C
10.01.2012 14:57 6,8 C 83 % 1030,2 hPa 0,0 l/m 9,0 km/h (2 Bft) W-NW 292 4,1 C 5,0 C
10.01.2012 15:02 6,8 C 83 % 1030,4 hPa 0,0 l/m 7,9 km/h (2 Bft) W 270 4,1 C 5,3 C
10.01.2012 15:07 6,7 C 83 % 1030,4 hPa 0,0 l/m 8,6 km/h (2 Bft) W-NW 292 4,0 C 5,0 C
10.01.2012 15:12 6,6 C 83 % 1030,4 hPa 0,0 l/m 8,3 km/h (2 Bft) NW 315 3,9 C 4,9 C
10.01.2012 15:17 6,6 C 83 % 1030,4 hPa 0,0 l/m 5,8 km/h (2 Bft) W 270 3,9 C 5,6 C
10.01.2012 15:22 6,6 C 84 % 1030,4 hPa 0,0 l/m 7,2 km/h (2 Bft) W 270 4,1 C 5,2 C
10.01.2012 15:27 6,5 C 84 % 1030,5 hPa 0,0 l/m 4,0 km/h (1 Bft) W-SW 247 4,0 C 6,5 C
10.01.2012 15:32 6,5 C 84 % 1030,5 hPa 0,0 l/m 6,5 km/h (2 Bft) SW 225 4,0 C 5,3 C
10.01.2012 15:37 6,5 C 84 % 1030,6 hPa 0,0 l/m 7,2 km/h (2 Bft) W-SW 247 4,0 C 5,1 C
10.01.2012 15:42 6,4 C 84 % 1030,6 hPa 0,0 l/m 12,6 km/h (3 Bft) SW 225 3,9 C 3,8 C
10.01.2012 15:47 6,5 C 85 % 1030,6 hPa 0,0 l/m 6,1 km/h (2 Bft) SW 225 4,2 C 5,4 C
10.01.2012 15:52 6,4 C 84 % 1030,6 hPa 0,0 l/m 4,7 km/h (1 Bft) W 270 3,9 C 5,8 C
10.01.2012 15:57 6,5 C 85 % 1030,7 hPa 0,0 l/m 12,2 km/h (2 Bft) W-SW 247 4,2 C 4,0 C
10.01.2012 16:02 6,4 C 84 % 1030,8 hPa 0,0 l/m 4,3 km/h (1 Bft) W 270 3,9 C 6,4 C
10.01.2012 16:07 6,5 C 85 % 1030,8 hPa 0,0 l/m 4,0 km/h (1 Bft) W 270 4,2 C 6,5 C
10.01.2012 16:12 6,5 C 85 % 1030,9 hPa 0,0 l/m 10,1 km/h (2 Bft) W-SW 247 4,2 C 4,4 C
10.01.2012 16:17 6,5 C 85 % 1031,1 hPa 0,0 l/m 7,9 km/h (2 Bft) W-SW 247 4,2 C 4,9 C
10.01.2012 16:22 6,4 C 85 % 1031,0 hPa 0,0 l/m 8,3 km/h (2 Bft) W-SW 247 4,1 C 4,7 C
10.01.2012 16:27 6,4 C 85 % 1031,0 hPa 0,0 l/m 6,1 km/h (2 Bft) W 270 4,1 C 5,3 C
10.01.2012 16:32 6,4 C 85 % 1031,1 hPa 0,0 l/m 3,6 km/h (1 Bft) W 270 4,1 C 6,4 C
10.01.2012 16:37 6,4 C 85 % 1031,1 hPa 0,0 l/m 10,8 km/h (2 Bft) W-SW 247 4,1 C 4,2 C
10.01.2012 16:42 6,4 C 85 % 1031,3 hPa 0,0 l/m 14,8 km/h (3 Bft) W-SW 247 4,1 C 3,5 C
10.01.2012 16:47 6,3 C 85 % 1031,3 hPa 0,0 l/m 12,2 km/h (2 Bft) W-SW 247 4,0 C 3,8 C
10.01.2012 16:52 6,3 C 85 % 1031,2 hPa 0,0 l/m 8,3 km/h (2 Bft) W-SW 247 4,0 C 4,6 C
10.01.2012 16:57 6,2 C 85 % 1031,3 hPa 0,0 l/m 11,2 km/h (2 Bft) W-SW 247 3,9 C 3,9 C
10.01.2012 17:02 6,1 C 86 % 1031,3 hPa 0,0 l/m 7,9 km/h (2 Bft) SW 225 3,9 C 4,5 C
10.01.2012 17:07 6,1 C 85 % 1031,4 hPa 0,0 l/m 14,4 km/h (3 Bft) W-SW 247 3,8 C 3,2 C
10.01.2012 17:12 5,9 C 85 % 1031,5 hPa 0,0 l/m 7,6 km/h (2 Bft) W-NW 292 3,6 C 4,3 C
10.01.2012 17:17 5,9 C 85 % 1031,4 hPa 0,0 l/m 5,4 km/h (1 Bft) W 270 3,6 C 5,0 C
10.01.2012 17:22 5,9 C 86 % 1031,4 hPa 0,0 l/m 6,8 km/h (2 Bft) W 270 3,7 C 4,5 C
10.01.2012 17:27 5,8 C 86 % 1031,3 hPa 0,0 l/m 4,7 km/h (1 Bft) W 270 3,6 C 5,1 C
10.01.2012 17:32 5,8 C 86 % 1031,5 hPa 0,0 l/m 15,5 km/h (3 Bft) W-SW 247 3,6 C 2,7 C
10.01.2012 17:37 5,8 C 86 % 1031,5 hPa 0,0 l/m 10,8 km/h (2 Bft) W-SW 247 3,6 C 3,5 C
10.01.2012 17:42 5,8 C 86 % 1031,5 hPa 0,0 l/m 11,2 km/h (2 Bft) W-SW 247 3,6 C 3,4 C
10.01.2012 17:47 5,8 C 86 % 1031,4 hPa 0,0 l/m 14,4 km/h (3 Bft) SW 225 3,6 C 2,8 C
10.01.2012 17:52 5,8 C 86 % 1031,4 hPa 0,0 l/m 12,2 km/h (2 Bft) SW 225 3,6 C 3,2 C
10.01.2012 17:57 5,8 C 86 % 1031,4 hPa 0,0 l/m 14,8 km/h (3 Bft) W-SW 247 3,6 C 2,8 C
10.01.2012 18:02 5,8 C 86 % 1031,3 hPa 0,0 l/m 6,8 km/h (2 Bft) W-NW 292 3,6 C 4,4 C
10.01.2012 18:07 5,7 C 85 % 1031,4 hPa 0,0 l/m 9,4 km/h (2 Bft) W 270 3,4 C 3,6 C
10.01.2012 18:12 5,6 C 85 % 1031,4 hPa 0,0 l/m 10,4 km/h (2 Bft) W-SW 247 3,3 C 3,3 C
10.01.2012 18:17 5,6 C 85 % 1031,5 hPa 0,0 l/m 5,4 km/h (1 Bft) W-SW 247 3,3 C 4,6 C
10.01.2012 18:22 5,6 C 85 % 1031,6 hPa 0,0 l/m 9,4 km/h (2 Bft) W-SW 247 3,3 C 3,5 C
10.01.2012 18:27 5,5 C 85 % 1031,4 hPa 0,0 l/m 2,9 km/h (1 Bft) W 270 3,2 C 5,5 C
10.01.2012 18:32 5,5 C 85 % 1031,5 hPa 0,0 l/m 11,5 km/h (2 Bft) W-SW 247 3,2 C 3,0 C
10.01.2012 18:37 5,4 C 85 % 1031,4 hPa 0,0 l/m 4,7 km/h (1 Bft) W-SW 247 3,1 C 4,7 C
10.01.2012 18:42 5,4 C 86 % 1031,5 hPa 0,0 l/m 5,8 km/h (2 Bft) W-NW 292 3,3 C 4,2 C
10.01.2012 18:47 5,3 C 86 % 1031,3 hPa 0,0 l/m 6,1 km/h (2 Bft) W-SW 247 3,2 C 4,0 C
10.01.2012 18:52 5,3 C 86 % 1031,5 hPa 0,0 l/m 9,7 km/h (2 Bft) W 270 3,2 C 3,1 C
10.01.2012 18:57 5,3 C 86 % 1031,3 hPa 0,0 l/m 7,9 km/h (2 Bft) W-SW 247 3,2 C 3,5 C
10.01.2012 19:02 5,2 C 86 % 1031,5 hPa 0,0 l/m 20,5 km/h (4 Bft) W 270 3,1 C 1,3 C
10.01.2012 19:07 5,2 C 86 % 1031,5 hPa 0,0 l/m 11,5 km/h (2 Bft) W-SW 247 3,1 C 2,6 C
10.01.2012 19:12 5,1 C 86 % 1031,5 hPa 0,0 l/m 5,8 km/h (2 Bft) W 270 3,0 C 3,9 C
10.01.2012 19:17 5,1 C 86 % 1031,5 hPa 0,0 l/m 8,3 km/h (2 Bft) W-SW 247 3,0 C 3,2 C
10.01.2012 19:22 5,1 C 86 % 1031,4 hPa 0,0 l/m 6,1 km/h (2 Bft) W 270 3,0 C 3,8 C
10.01.2012 19:27 4,9 C 86 % 1031,6 hPa 0,0 l/m 5,8 km/h (2 Bft) W-SW 247 2,8 C 3,7 C
10.01.2012 19:32 4,9 C 86 % 1031,6 hPa 0,0 l/m 12,2 km/h (2 Bft) W 270 2,8 C 2,1 C
10.01.2012 19:37 4,9 C 86 % 1031,6 hPa 0,0 l/m 6,1 km/h (2 Bft) SW 225 2,8 C 3,6 C
10.01.2012 19:42 4,9 C 86 % 1031,6 hPa 0,0 l/m 10,4 km/h (2 Bft) W-SW 247 2,8 C 2,5 C
10.01.2012 19:47 4,9 C 86 % 1031,6 hPa 0,0 l/m 10,1 km/h (2 Bft) W-SW 247 2,8 C 2,5 C
10.01.2012 19:52 4,9 C 87 % 1031,5 hPa 0,0 l/m 6,1 km/h (2 Bft) W-NW 292 2,9 C 3,6 C
10.01.2012 19:57 4,9 C 87 % 1031,6 hPa 0,0 l/m 7,6 km/h (2 Bft) W 270 2,9 C 3,1 C
10.01.2012 20:02 4,9 C 87 % 1031,5 hPa 0,0 l/m 8,6 km/h (2 Bft) W-SW 247 2,9 C 2,9 C
10.01.2012 20:07 4,9 C 87 % 1031,5 hPa 0,0 l/m 13,3 km/h (3 Bft) W-SW 247 2,9 C 1,9 C
10.01.2012 20:12 4,9 C 87 % 1031,3 hPa 0,0 l/m 8,3 km/h (2 Bft) W-SW 247 2,9 C 2,9 C
10.01.2012 20:17 4,9 C 87 % 1031,2 hPa 0,0 l/m 8,3 km/h (2 Bft) W-SW 247 2,9 C 2,9 C
10.01.2012 20:22 4,9 C 87 % 1031,3 hPa 0,0 l/m 8,6 km/h (2 Bft) W 270 2,9 C 2,9 C
10.01.2012 20:27 4,8 C 87 % 1031,4 hPa 0,0 l/m 12,2 km/h (2 Bft) W-SW 247 2,8 C 2,0 C
10.01.2012 20:32 4,8 C 87 % 1031,4 hPa 0,0 l/m 11,9 km/h (2 Bft) W-SW 247 2,8 C 2,0 C
10.01.2012 20:37 4,8 C 87 % 1031,3 hPa 0,0 l/m 16,6 km/h (3 Bft) W 270 2,8 C 1,3 C
10.01.2012 20:42 4,8 C 88 % 1031,3 hPa 0,0 l/m 7,9 km/h (2 Bft) W-SW 247 3,0 C 2,9 C
10.01.2012 20:47 4,9 C 88 % 1031,3 hPa 0,0 l/m 11,9 km/h (2 Bft) W 270 3,1 C 2,2 C
10.01.2012 20:52 4,9 C 88 % 1031,1 hPa 0,0 l/m 14,0 km/h (3 Bft) W-SW 247 3,1 C 1,8 C
10.01.2012 20:57 4,8 C 88 % 1031,0 hPa 0,0 l/m 10,4 km/h (2 Bft) W-SW 247 3,0 C 2,3 C
10.01.2012 21:02 4,8 C 88 % 1031,1 hPa 0,0 l/m 11,2 km/h (2 Bft) W-SW 247 3,0 C 2,2 C
10.01.2012 21:07 4,8 C 88 % 1031,0 hPa 0,0 l/m 10,4 km/h (2 Bft) W-SW 247 3,0 C 2,3 C
10.01.2012 21:12 4,7 C 88 % 1031,2 hPa 0,0 l/m 8,6 km/h (2 Bft) SW 225 2,9 C 2,6 C
10.01.2012 21:17 4,6 C 88 % 1031,2 hPa 0,0 l/m 9,4 km/h (2 Bft) W-SW 247 2,8 C 2,3 C
10.01.2012 21:22 4,6 C 88 % 1031,1 hPa 0,0 l/m 7,9 km/h (2 Bft) W-SW 247 2,8 C 2,7 C
10.01.2012 21:27 4,5 C 88 % 1031,0 hPa 0,0 l/m 7,6 km/h (2 Bft) W 270 2,7 C 2,7 C
10.01.2012 21:32 4,5 C 88 % 1031,1 hPa 0,0 l/m 8,3 km/h (2 Bft) W 270 2,7 C 2,5 C
10.01.2012 21:37 4,5 C 88 % 1031,0 hPa 0,0 l/m 8,3 km/h (2 Bft) W 270 2,7 C 2,5 C
10.01.2012 21:42 4,5 C 88 % 1031,1 hPa 0,0 l/m 7,2 km/h (2 Bft) W-SW 247 2,7 C 2,8 C
10.01.2012 21:47 4,6 C 88 % 1031,2 hPa 0,0 l/m 7,9 km/h (2 Bft) SW 225 2,8 C 2,7 C
10.01.2012 21:52 4,6 C 88 % 1031,1 hPa 0,0 l/m 4,7 km/h (1 Bft) W-SW 247 2,8 C 3,8 C
10.01.2012 21:57 4,6 C 88 % 1031,1 hPa 0,0 l/m 10,1 km/h (2 Bft) W 270 2,8 C 2,2 C
10.01.2012 22:02 4,6 C 88 % 1031,1 hPa 0,0 l/m 7,2 km/h (2 Bft) W-SW 247 2,8 C 2,9 C
10.01.2012 22:07 4,7 C 88 % 1031,1 hPa 0,0 l/m 9,7 km/h (2 Bft) SW 225 2,9 C 2,4 C
10.01.2012 22:12 4,8 C 88 % 1030,9 hPa 0,0 l/m 14,0 km/h (3 Bft) W-SW 247 3,0 C 1,7 C
10.01.2012 22:17 4,8 C 88 % 1030,9 hPa 0,0 l/m 16,6 km/h (3 Bft) W-SW 247 3,0 C 1,3 C
10.01.2012 22:22 4,8 C 88 % 1030,9 hPa 0,0 l/m 13,0 km/h (3 Bft) SW 225 3,0 C 1,8 C
10.01.2012 22:27 4,9 C 88 % 1031,0 hPa 0,0 l/m 11,9 km/h (2 Bft) W-SW 247 3,1 C 2,2 C
10.01.2012 22:32 4,9 C 88 % 1030,8 hPa 0,0 l/m 10,4 km/h (2 Bft) S-SW 202 3,1 C 2,5 C
10.01.2012 22:37 4,9 C 88 % 1030,6 hPa 0,0 l/m 9,4 km/h (2 Bft) W-SW 247 3,1 C 2,7 C
10.01.2012 22:42 4,9 C 88 % 1030,8 hPa 0,0 l/m 14,4 km/h (3 Bft) W-SW 247 3,1 C 1,7 C
10.01.2012 22:47 4,9 C 88 % 1030,8 hPa 0,0 l/m 13,7 km/h (3 Bft) W 270 3,1 C 1,8 C
10.01.2012 22:52 5,0 C 88 % 1030,6 hPa 0,0 l/m 10,8 km/h (2 Bft) W 270 3,2 C 2,5 C
10.01.2012 22:57 5,0 C 88 % 1030,6 hPa 0,0 l/m 7,9 km/h (2 Bft) W 270 3,2 C 3,2 C
10.01.2012 23:02 5,0 C 88 % 1030,6 hPa 0,0 l/m 10,8 km/h (2 Bft) W 270 3,2 C 2,5 C
10.01.2012 23:07 5,1 C 88 % 1030,4 hPa 0,0 l/m 3,2 km/h (1 Bft) W-SW 247 3,3 C 5,1 C
10.01.2012 23:12 5,0 C 88 % 1030,5 hPa 0,0 l/m 4,0 km/h (1 Bft) W-SW 247 3,2 C 5,0 C
10.01.2012 23:17 5,0 C 88 % 1030,4 hPa 0,0 l/m 4,3 km/h (1 Bft) SW 225 3,2 C 5,0 C
10.01.2012 23:22 5,0 C 88 % 1030,4 hPa 0,0 l/m 6,1 km/h (2 Bft) W-SW 247 3,2 C 3,7 C
10.01.2012 23:27 5,0 C 88 % 1030,5 hPa 0,0 l/m 8,3 km/h (2 Bft) S-SW 202 3,2 C 3,1 C
10.01.2012 23:32 5,0 C 88 % 1030,3 hPa 0,0 l/m 9,0 km/h (2 Bft) SW 225 3,2 C 2,9 C
10.01.2012 23:37 5,0 C 88 % 1030,2 hPa 0,0 l/m 15,5 km/h (3 Bft) SW 225 3,2 C 1,7 C
10.01.2012 23:42 5,0 C 88 % 1030,3 hPa 0,0 l/m 5,8 km/h (2 Bft) W-SW 247 3,2 C 3,8 C
10.01.2012 23:47 5,0 C 88 % 1030,1 hPa 0,0 l/m 7,6 km/h (2 Bft) W-SW 247 3,2 C 3,2 C
10.01.2012 23:52 5,1 C 88 % 1030,2 hPa 0,0 l/m 12,2 km/h (2 Bft) S-SW 202 3,3 C 2,3 C
10.01.2012 23:57 5,1 C 88 % 1030,1 hPa 0,0 l/m 5,0 km/h (1 Bft) S-SW 202 3,3 C 4,2 C
_ Min-Zeit 07:02 14:52 00:02 - 18:27 - - 07:07 08:17
Minimum _ 4,1 C 83 % 1021,2 hPa - 2,9 km/h (1 Bft) - - 2,1 C -0,1 C
_ Max-Zeit 00:02 00:02 18:22 00:02 00:32 - - 00:02 15:27
Maximum _ 7,2 C 92 % 1031,6 hPa 0,0 l/m 29,5 km/h
W-NW (5 Bft)
- - 6,0 C 6,5 C
Durchschnitt _ 5,6 C 87 % 1028,4 hPa #0,0 l/m 11,5 km/h (2 Bft) W-NW - 3,5 C 3,2 C
(c) by David Heller